createdAt,value
2023-04-11T00:00:48.689Z,8.47
2023-04-11T00:03:35.721Z,7.10
2023-04-11T00:06:23.201Z,8.57
2023-04-11T00:09:12.343Z,6.57
2023-04-11T00:11:59.076Z,7.73
2023-04-11T00:14:49.011Z,7.03
2023-04-11T00:17:37.563Z,6.60
2023-04-11T00:20:24.372Z,7.23
2023-04-11T00:23:11.043Z,8.80
2023-04-11T00:25:58.733Z,7.40
2023-04-11T00:28:45.192Z,6.73
2023-04-11T00:31:31.741Z,7.37
2023-04-11T00:34:18.412Z,7.73
2023-04-11T00:37:05.165Z,6.73
2023-04-11T00:39:52.922Z,7.13
2023-04-11T00:42:41.069Z,8.47
2023-04-11T00:45:28.183Z,6.13
2023-04-11T00:48:14.968Z,6.67
2023-04-11T00:51:02.839Z,7.57
2023-04-11T00:53:49.375Z,6.37
2023-04-11T00:56:35.940Z,7.63
2023-04-11T00:59:24.146Z,5.97
2023-04-11T01:02:11.161Z,8.60
2023-04-11T01:04:59.168Z,5.67
2023-04-11T01:07:50.114Z,7.33
2023-04-11T01:10:37.356Z,6.13
2023-04-11T01:13:24.119Z,12.23
2023-04-11T01:16:12.811Z,9.97
2023-04-11T01:18:59.148Z,7.43
2023-04-11T01:21:46.289Z,6.70
2023-04-11T01:24:34.269Z,6.40
2023-04-11T01:27:21.356Z,6.30
2023-04-11T01:30:09.330Z,7.30
2023-04-11T01:32:55.889Z,7.73
2023-04-11T01:35:42.723Z,7.10
2023-04-11T01:38:29.195Z,7.50
2023-04-11T01:41:18.872Z,8.77
2023-04-11T01:44:05.919Z,7.50
2023-04-11T01:46:52.962Z,8.80
2023-04-11T01:49:39.707Z,8.50
2023-04-11T01:52:26.411Z,8.63
2023-04-11T01:55:12.757Z,6.90
2023-04-11T01:58:00.599Z,9.63
2023-04-11T02:00:47.117Z,9.07
2023-04-11T02:03:33.614Z,11.53
2023-04-11T02:06:20.615Z,9.77
2023-04-11T02:09:08.002Z,8.93
2023-04-11T02:11:54.566Z,10.47
2023-04-11T02:14:44.047Z,11.63
2023-04-11T02:17:31.185Z,10.30
2023-04-11T02:20:17.682Z,9.90
2023-04-11T02:23:04.540Z,8.87
2023-04-11T02:25:51.300Z,9.27
2023-04-11T02:28:37.812Z,10.97
2023-04-11T02:31:25.950Z,8.53
2023-04-11T02:34:12.462Z,12.23
2023-04-11T02:36:58.859Z,9.93
2023-04-11T02:39:45.511Z,10.90
2023-04-11T02:42:32.077Z,10.80
2023-04-11T02:45:18.666Z,10.60
2023-04-11T02:48:06.892Z,10.87
2023-04-11T02:50:53.622Z,9.83
2023-04-11T02:53:39.892Z,12.07
2023-04-11T02:56:27.082Z,10.77
2023-04-11T02:59:13.808Z,10.67
2023-04-11T03:02:01.701Z,8.80
2023-04-11T03:04:49.696Z,9.53
2023-04-11T03:07:38.474Z,7.20
2023-04-11T03:10:24.838Z,9.20
2023-04-11T03:13:11.271Z,8.80
2023-04-11T03:15:57.710Z,9.67
2023-04-11T03:18:44.397Z,11.03
2023-04-11T03:21:32.369Z,9.03
2023-04-11T03:24:18.922Z,11.93
2023-04-11T03:27:05.491Z,13.73
2023-04-11T03:29:52.569Z,14.53
2023-04-11T03:32:38.889Z,13.83
2023-04-11T03:35:25.270Z,14.13
2023-04-11T03:38:13.138Z,11.53
2023-04-11T03:40:59.448Z,13.30
2023-04-11T03:43:45.893Z,12.90
2023-04-11T03:46:32.408Z,10.43
2023-04-11T03:49:18.589Z,10.13
2023-04-11T03:52:06.262Z,9.60
2023-04-11T03:54:54.028Z,8.03
2023-04-11T03:57:40.303Z,9.57
2023-04-11T04:00:26.881Z,9.57
2023-04-11T04:03:13.913Z,8.87
2023-04-11T04:06:00.968Z,10.53
2023-04-11T04:08:47.245Z,13.53
2023-04-11T04:11:35.201Z,9.27
2023-04-11T04:14:21.610Z,9.00
2023-04-11T04:17:08.273Z,12.70
2023-04-11T04:19:54.877Z,9.43
2023-04-11T04:22:41.260Z,9.03
2023-04-11T04:25:27.688Z,9.43
2023-04-11T04:28:20.177Z,10.03
2023-04-11T04:31:08.470Z,8.47
2023-04-11T04:33:58.549Z,7.83
2023-04-11T04:36:47.640Z,10.73
2023-04-11T04:39:34.759Z,11.17
2023-04-11T04:42:23.600Z,10.03
2023-04-11T04:45:12.388Z,8.63
2023-04-11T04:47:58.696Z,8.33
2023-04-11T04:50:45.666Z,19.60
2023-04-11T04:53:34.728Z,15.37
2023-04-11T04:56:21.279Z,20.83
2023-04-11T04:59:07.958Z,26.90
2023-04-11T05:01:55.920Z,16.43
2023-04-11T05:04:42.563Z,15.03
2023-04-11T05:07:29.531Z,10.90
2023-04-11T05:10:15.767Z,11.60
2023-04-11T05:13:02.308Z,9.03
2023-04-11T05:15:52.057Z,7.73
2023-04-11T05:18:40.048Z,7.70
2023-04-11T05:21:26.826Z,7.20
2023-04-11T05:24:13.441Z,7.37
2023-04-11T05:27:00.506Z,8.23
2023-04-11T05:29:47.293Z,6.23
2023-04-11T05:32:34.118Z,6.63
2023-04-11T05:35:22.214Z,7.33
2023-04-11T05:38:09.586Z,8.03
2023-04-11T05:40:55.822Z,7.37
2023-04-11T05:43:42.292Z,5.97
2023-04-11T05:46:29.449Z,7.17
2023-04-11T05:49:16.270Z,6.73
2023-04-11T05:52:04.174Z,6.97
2023-04-11T05:54:50.813Z,6.63
2023-04-11T05:57:37.124Z,5.47
2023-04-11T06:00:24.645Z,6.10
2023-04-11T06:03:11.258Z,6.40
2023-04-11T06:05:57.997Z,6.50
2023-04-11T06:08:46.051Z,5.37
2023-04-11T06:11:32.687Z,9.07
2023-04-11T06:14:18.988Z,5.40
2023-04-11T06:17:05.767Z,6.30
2023-04-11T06:19:52.357Z,6.07
2023-04-11T06:22:40.092Z,4.67
2023-04-11T06:25:28.263Z,6.60
2023-04-11T06:28:15.740Z,4.93
2023-04-11T06:31:02.174Z,5.50
2023-04-11T06:33:48.576Z,4.97
2023-04-11T06:36:35.077Z,4.33
2023-04-11T06:39:21.895Z,6.23
2023-04-11T06:42:10.177Z,2.90
2023-04-11T06:44:57.303Z,3.50
2023-04-11T06:47:44.184Z,4.17
2023-04-11T06:50:31.068Z,3.97
2023-04-11T06:53:17.561Z,10.43
2023-04-11T06:56:03.838Z,6.17
2023-04-11T06:58:51.512Z,3.07
2023-04-11T07:01:39.702Z,5.20
2023-04-11T07:04:26.720Z,3.63
2023-04-11T07:07:13.154Z,4.83
2023-04-11T07:09:59.667Z,3.43
2023-04-11T07:12:46.180Z,4.60
2023-04-11T07:15:33.926Z,3.43
2023-04-11T07:18:20.272Z,2.87
2023-04-11T07:21:07.218Z,5.17
2023-04-11T07:23:55.112Z,4.10
2023-04-11T07:26:42.340Z,4.90
2023-04-11T07:29:29.524Z,4.43
2023-04-11T07:32:17.656Z,2.43
2023-04-11T07:35:04.162Z,4.30
2023-04-11T07:37:50.471Z,5.00
2023-04-11T07:40:37.030Z,3.77
2023-04-11T07:43:23.444Z,5.70
2023-04-11T07:46:10.010Z,4.13
2023-04-11T07:48:58.257Z,3.07
2023-04-11T07:51:44.744Z,3.03
2023-04-11T07:54:31.141Z,3.80
2023-04-11T07:57:17.515Z,3.42
2023-04-11T08:00:04.313Z,9.30
2023-04-11T08:02:52.379Z,5.32
2023-04-11T08:05:40.772Z,6.47
2023-04-11T08:08:27.343Z,6.43
2023-04-11T08:11:13.738Z,3.13
2023-04-11T08:14:00.138Z,4.82
2023-04-11T08:16:46.686Z,3.33
2023-04-11T08:19:32.998Z,7.20
2023-04-11T08:22:20.874Z,8.60
2023-04-11T08:25:09.686Z,7.82
2023-04-11T08:27:56.091Z,7.60
2023-04-11T08:30:42.566Z,4.97
2023-04-11T08:33:30.568Z,8.95
2023-04-11T08:36:17.294Z,8.20
2023-04-11T08:39:05.425Z,9.88
2023-04-11T08:41:52.168Z,5.95
2023-04-11T08:44:38.908Z,6.88
2023-04-11T08:47:26.148Z,7.75
2023-04-11T08:50:12.948Z,9.52
2023-04-11T08:53:02.782Z,6.70
2023-04-11T08:55:50.987Z,6.65
2023-04-11T08:58:37.662Z,8.70
2023-04-11T09:01:29.633Z,9.55
2023-04-11T09:04:16.283Z,3.10
2023-04-11T09:07:03.660Z,4.65
2023-04-11T09:09:50.221Z,8.57
2023-04-11T09:12:38.132Z,6.68
2023-04-11T09:15:27.014Z,5.57
2023-04-11T09:18:31.735Z,6.55
2023-04-11T09:21:20.122Z,6.63
2023-04-11T09:24:16.224Z,6.57
2023-04-11T09:27:11.349Z,3.42
2023-04-11T09:29:59.204Z,2.95
2023-04-11T09:32:46.143Z,2.08
2023-04-11T09:35:32.993Z,1.93
2023-04-11T09:38:30.776Z,1.63
2023-04-11T09:41:29.731Z,3.23
2023-04-11T09:44:16.428Z,1.83
2023-04-11T09:47:04.796Z,2.03
2023-04-11T09:49:52.729Z,3.93
2023-04-11T09:52:42.853Z,2.30
2023-04-11T09:55:29.539Z,2.77
2023-04-11T09:58:16.304Z,1.83
2023-04-11T10:01:03.703Z,2.28
2023-04-11T10:03:52.762Z,4.35
2023-04-11T10:07:02.064Z,4.70
2023-04-11T10:09:48.660Z,2.35
2023-04-11T10:12:35.595Z,5.15
2023-04-11T10:15:22.909Z,4.68
2023-04-11T10:18:10.901Z,3.35
2023-04-11T10:20:59.521Z,5.90
2023-04-11T10:24:08.262Z,6.03
2023-04-11T10:26:57.452Z,7.20
2023-04-11T10:29:52.537Z,3.05
2023-04-11T10:32:39.901Z,4.22
2023-04-11T10:35:27.043Z,3.80
2023-04-11T10:38:48.871Z,4.93
2023-04-11T10:41:36.031Z,3.53
2023-04-11T10:44:23.106Z,4.95
2023-04-11T10:47:18.118Z,1.85
2023-04-11T10:50:05.460Z,2.83
2023-04-11T10:52:52.163Z,2.33
2023-04-11T10:55:51.220Z,2.85
2023-04-11T10:58:40.275Z,3.85
2023-04-11T11:01:37.156Z,10.23
2023-04-11T11:04:32.845Z,4.60
2023-04-11T11:07:19.612Z,3.85
2023-04-11T11:10:07.128Z,2.70
2023-04-11T11:12:55.968Z,2.63
2023-04-11T11:15:48.672Z,2.03
2023-04-11T11:18:35.958Z,4.22
2023-04-11T11:21:28.409Z,6.38
2023-04-11T11:24:15.126Z,8.85
2023-04-11T11:27:01.492Z,3.88
2023-04-11T11:29:49.593Z,5.65
2023-04-11T11:32:36.036Z,8.88
2023-04-11T11:35:23.089Z,4.28
2023-04-11T11:38:09.887Z,11.00
2023-04-11T11:40:57.178Z,6.93
2023-04-11T11:43:43.905Z,5.20
2023-04-11T11:46:33.798Z,3.22
2023-04-11T11:49:20.625Z,3.08
2023-04-11T11:52:07.494Z,3.83
2023-04-11T11:54:54.013Z,7.47
2023-04-11T11:57:45.648Z,5.07
2023-04-11T12:00:37.632Z,6.57
2023-04-11T12:03:26.040Z,7.03
2023-04-11T12:06:13.408Z,5.47
2023-04-11T12:09:04.493Z,4.95
2023-04-11T12:11:56.188Z,4.57
2023-04-11T12:14:42.375Z,6.20
2023-04-11T12:17:35.497Z,7.97
2023-04-11T12:20:26.329Z,6.97
2023-04-11T12:23:12.611Z,6.72
2023-04-11T12:25:59.145Z,7.05
2023-04-11T12:28:45.436Z,8.40
2023-04-11T12:31:31.977Z,7.47
2023-04-11T12:34:18.670Z,8.18
2023-04-11T12:37:06.499Z,5.85
2023-04-11T12:39:53.174Z,5.38
2023-04-11T12:42:53.329Z,3.10
2023-04-11T12:45:42.648Z,4.70
2023-04-11T12:48:29.057Z,5.45
2023-04-11T12:51:15.456Z,7.35
2023-04-11T12:54:03.753Z,6.10
2023-04-11T12:56:50.042Z,2.90
2023-04-11T12:59:36.467Z,3.90
2023-04-11T13:02:23.104Z,6.18
2023-04-11T13:05:10.362Z,5.70
2023-04-11T13:07:56.931Z,7.27
2023-04-11T13:10:44.655Z,4.88
2023-04-11T13:13:30.975Z,9.33
2023-04-11T13:16:17.455Z,4.30
2023-04-11T13:19:03.779Z,5.78
2023-04-11T13:21:50.605Z,3.10
2023-04-11T13:24:37.169Z,6.00
2023-04-11T13:27:25.038Z,9.48
2023-04-11T13:30:12.644Z,6.05
2023-04-11T13:32:59.967Z,7.60
2023-04-11T13:35:46.435Z,4.43
2023-04-11T13:38:33.403Z,4.80
2023-04-11T13:41:20.255Z,3.72
2023-04-11T13:44:07.905Z,3.22
2023-04-11T13:46:54.334Z,2.97
2023-04-11T13:49:40.797Z,4.43
2023-04-11T13:52:27.353Z,4.63
2023-04-11T13:55:13.595Z,5.60
2023-04-11T13:57:59.902Z,7.75
2023-04-11T14:00:49.551Z,4.85
2023-04-11T14:03:36.143Z,6.22
2023-04-11T14:06:22.385Z,6.30
2023-04-11T14:09:08.930Z,5.78
2023-04-11T14:11:55.102Z,4.68
2023-04-11T14:14:42.040Z,6.80
2023-04-11T14:17:31.073Z,3.13
2023-04-11T14:20:17.633Z,6.13
2023-04-11T14:23:04.107Z,2.65
2023-04-11T14:25:51.833Z,6.60
2023-04-11T14:28:38.216Z,5.60
2023-04-11T14:31:24.624Z,6.35
2023-04-11T14:34:12.783Z,3.33
2023-04-11T14:36:59.007Z,3.43
2023-04-11T14:39:45.582Z,4.65
2023-04-11T14:42:31.896Z,7.22
2023-04-11T14:45:18.706Z,5.22
2023-04-11T14:48:05.591Z,4.13
2023-04-11T14:50:54.729Z,2.15
2023-04-11T14:53:43.613Z,2.25
2023-04-11T14:56:29.995Z,2.33
2023-04-11T14:59:16.717Z,2.20
2023-04-11T15:02:03.470Z,9.77
2023-04-11T15:04:49.942Z,2.42
2023-04-11T15:07:38.087Z,1.90
2023-04-11T15:10:29.750Z,8.00
2023-04-11T15:13:16.825Z,4.07
2023-04-11T15:16:04.123Z,5.53
2023-04-11T15:18:51.099Z,4.30
2023-04-11T15:21:38.406Z,4.43
2023-04-11T15:24:26.134Z,1.70
2023-04-11T15:27:12.879Z,2.95
2023-04-11T15:29:59.609Z,1.80
2023-04-11T15:32:46.728Z,2.88
2023-04-11T15:35:33.579Z,2.92
2023-04-11T15:38:20.300Z,4.28
2023-04-11T15:41:08.536Z,1.93
2023-04-11T15:43:55.341Z,3.40
2023-04-11T15:46:42.349Z,2.85
2023-04-11T15:49:29.064Z,6.00
2023-04-11T15:52:16.664Z,2.88
2023-04-11T15:55:03.068Z,3.08
2023-04-11T15:57:51.084Z,4.63
2023-04-11T16:00:38.352Z,4.00
2023-04-11T16:03:31.533Z,3.23
2023-04-11T16:06:19.755Z,10.88
2023-04-11T16:09:06.299Z,18.10
2023-04-11T16:11:52.852Z,27.43
2023-04-11T16:14:40.549Z,9.97
2023-04-11T16:17:26.859Z,9.40
2023-04-11T16:20:18.302Z,7.05
2023-04-11T16:23:04.666Z,4.93
2023-04-11T16:25:51.398Z,2.40
2023-04-11T16:28:38.029Z,9.40
2023-04-11T16:31:26.064Z,7.47
2023-04-11T16:34:12.755Z,3.77
2023-04-11T16:36:59.498Z,9.17
2023-04-11T16:39:45.836Z,1.80
2023-04-11T16:42:32.222Z,3.93
2023-04-11T16:45:18.560Z,9.83
2023-04-11T16:48:07.996Z,2.23
2023-04-11T16:50:54.473Z,3.63
2023-04-11T16:53:40.976Z,2.67
2023-04-11T16:56:29.007Z,2.23
2023-04-11T16:59:15.918Z,2.80
2023-04-11T17:02:02.655Z,2.47
2023-04-11T17:04:51.271Z,4.63
2023-04-11T17:07:37.699Z,3.47
2023-04-11T17:10:24.084Z,7.67
2023-04-11T17:13:11.611Z,7.40
2023-04-11T17:15:57.967Z,4.70
2023-04-11T17:18:44.432Z,3.03
2023-04-11T17:21:32.673Z,2.87
2023-04-11T17:24:19.485Z,2.10
2023-04-11T17:27:05.842Z,2.27
2023-04-11T17:29:52.542Z,4.60
2023-04-11T17:32:39.341Z,2.47
2023-04-11T17:35:26.062Z,3.10
2023-04-11T17:38:14.243Z,5.40
2023-04-11T17:41:13.477Z,5.53
2023-04-11T17:44:01.520Z,5.23
2023-04-11T17:46:48.014Z,4.53
2023-04-11T17:49:34.330Z,3.50
2023-04-11T17:52:20.733Z,2.93
2023-04-11T17:55:10.347Z,4.73
2023-04-11T17:57:57.834Z,2.73
2023-04-11T18:00:55.693Z,3.67
2023-04-11T18:03:43.914Z,4.23
2023-04-11T18:06:34.142Z,4.87
2023-04-11T18:09:20.471Z,5.13
2023-04-11T18:12:08.289Z,4.10
2023-04-11T18:14:56.752Z,3.13
2023-04-11T18:17:44.675Z,3.87
2023-04-11T18:20:33.584Z,5.23
2023-04-11T18:23:20.337Z,8.73
2023-04-11T18:26:06.866Z,3.10
2023-04-11T18:28:54.963Z,4.37
2023-04-11T18:31:41.394Z,3.93
2023-04-11T18:34:27.713Z,6.60
2023-04-11T18:37:13.875Z,5.50
2023-04-11T18:40:01.219Z,4.10
2023-04-11T18:42:50.586Z,3.87
2023-04-11T18:45:39.731Z,7.27
2023-04-11T18:48:27.381Z,6.83
2023-04-11T18:51:13.835Z,5.97
2023-04-11T18:54:00.168Z,6.47
2023-04-11T18:56:48.663Z,6.10
2023-04-11T18:59:40.896Z,4.83
2023-04-11T19:02:30.260Z,5.30
2023-04-11T19:05:17.952Z,6.37
2023-04-11T19:08:05.485Z,5.23
2023-04-11T19:10:52.401Z,3.97
2023-04-11T19:13:38.879Z,5.27
2023-04-11T19:16:26.568Z,4.50
2023-04-11T19:19:14.868Z,4.93
2023-04-11T19:22:01.581Z,5.00
2023-04-11T19:24:48.969Z,3.60
2023-04-11T19:27:38.925Z,3.80
2023-04-11T19:30:25.693Z,3.80
2023-04-11T19:33:12.334Z,4.37
2023-04-11T19:36:00.361Z,5.00
2023-04-11T19:38:47.137Z,2.97
2023-04-11T19:41:33.707Z,5.80
2023-04-11T19:44:20.538Z,5.83
2023-04-11T19:47:06.950Z,4.43
2023-04-11T19:49:53.641Z,4.10
2023-04-11T19:52:41.925Z,8.23
2023-04-11T19:55:29.167Z,7.43
2023-04-11T19:58:15.805Z,4.93
2023-04-11T20:01:02.638Z,10.57
2023-04-11T20:03:49.836Z,8.90
2023-04-11T20:06:36.880Z,4.97
2023-04-11T20:09:28.560Z,9.33
2023-04-11T20:12:15.626Z,6.70
2023-04-11T20:15:02.145Z,5.90
2023-04-11T20:17:48.654Z,5.27
2023-04-11T20:20:36.820Z,4.30
2023-04-11T20:23:24.232Z,5.50
2023-04-11T20:26:12.060Z,4.57
2023-04-11T20:28:59.959Z,6.73
2023-04-11T20:31:46.419Z,7.00
2023-04-11T20:34:33.265Z,7.37
2023-04-11T20:37:22.227Z,4.07
2023-04-11T20:40:10.946Z,4.73
2023-04-11T20:43:00.283Z,4.83
2023-04-11T20:45:47.044Z,6.47
2023-04-11T20:48:33.356Z,6.13
2023-04-11T20:51:22.931Z,6.20
2023-04-11T20:54:09.409Z,8.17
2023-04-11T20:56:55.893Z,7.30
2023-04-11T20:59:43.571Z,8.27
2023-04-11T21:02:32.381Z,8.40
2023-04-11T21:05:20.857Z,6.87
2023-04-11T21:08:07.479Z,6.17
2023-04-11T21:10:53.805Z,10.13
2023-04-11T21:13:40.377Z,6.60
2023-04-11T21:16:28.341Z,4.17
2023-04-11T21:19:16.872Z,3.83
2023-04-11T21:22:03.595Z,5.17
2023-04-11T21:24:50.208Z,5.87
2023-04-11T21:27:36.561Z,4.20
2023-04-11T21:30:23.093Z,5.00
2023-04-11T21:33:13.780Z,5.57
2023-04-11T21:36:00.663Z,4.23
2023-04-11T21:38:47.107Z,6.47
2023-04-11T21:41:33.608Z,4.37
2023-04-11T21:44:20.108Z,4.77
2023-04-11T21:47:06.577Z,4.90
2023-04-11T21:49:54.360Z,5.13
2023-04-11T21:52:41.083Z,5.30
2023-04-11T21:55:28.444Z,9.10
2023-04-11T21:58:26.198Z,4.73
2023-04-11T22:01:16.165Z,3.67
2023-04-11T22:04:13.119Z,4.50
2023-04-11T22:07:01.673Z,4.50
2023-04-11T22:09:47.962Z,5.83
2023-04-11T22:12:34.339Z,5.10
2023-04-11T22:15:20.902Z,3.73
2023-04-11T22:18:09.463Z,3.33
2023-04-11T22:20:55.999Z,5.50
2023-04-11T22:23:43.831Z,6.50
2023-04-11T22:26:34.199Z,5.03
2023-04-11T22:29:21.708Z,7.37
2023-04-11T22:32:08.628Z,4.30
2023-04-11T22:34:55.426Z,5.23
2023-04-11T22:37:41.806Z,8.57
2023-04-11T22:40:29.449Z,8.20
2023-04-11T22:43:15.938Z,6.53
2023-04-11T22:46:02.655Z,5.33
2023-04-11T22:48:49.573Z,5.50
2023-04-11T22:51:37.949Z,4.17
2023-04-11T22:54:24.249Z,4.60
2023-04-11T22:57:11.959Z,5.40
2023-04-11T22:59:59.693Z,6.10
2023-04-11T23:02:47.136Z,5.23
2023-04-11T23:05:34.285Z,5.17
2023-04-11T23:08:20.706Z,5.37
2023-04-11T23:11:08.077Z,6.73
2023-04-11T23:13:58.264Z,6.83
2023-04-11T23:16:45.845Z,6.97
2023-04-11T23:19:32.560Z,8.67
2023-04-11T23:22:19.394Z,7.50
2023-04-11T23:25:06.916Z,8.33
2023-04-11T23:27:53.629Z,7.30
2023-04-11T23:30:41.561Z,6.03
2023-04-11T23:33:28.107Z,7.30
2023-04-11T23:36:14.617Z,4.87
2023-04-11T23:39:01.903Z,9.03
2023-04-11T23:41:48.433Z,6.70
2023-04-11T23:44:34.959Z,8.53
2023-04-11T23:47:22.720Z,8.13
2023-04-11T23:50:10.228Z,7.13
2023-04-11T23:52:56.994Z,10.73
2023-04-11T23:55:44.163Z,9.40
2023-04-11T23:58:30.914Z,5.33
